createdAt,value
2023-05-08T00:00:06.619Z,8.87
2023-05-08T00:01:39.750Z,9.87
2023-05-08T00:03:12.862Z,8.70
2023-05-08T00:04:46.055Z,9.90
2023-05-08T00:06:19.168Z,10.17
2023-05-08T00:07:53.710Z,9.60
2023-05-08T00:09:26.844Z,9.47
2023-05-08T00:10:59.924Z,8.83
2023-05-08T00:12:32.994Z,10.03
2023-05-08T00:14:06.247Z,10.17
2023-05-08T00:15:39.390Z,10.37
2023-05-08T00:17:12.563Z,11.57
2023-05-08T00:18:45.916Z,9.90
2023-05-08T00:20:19.045Z,9.87
2023-05-08T00:21:52.413Z,11.93
2023-05-08T00:23:26.841Z,10.40
2023-05-08T00:24:59.888Z,10.60
2023-05-08T00:26:32.958Z,12.17
2023-05-08T00:28:06.129Z,12.07
2023-05-08T00:29:40.240Z,13.70
2023-05-08T00:31:12.313Z,13.83
2023-05-08T00:32:45.484Z,10.93
2023-05-08T00:34:17.766Z,11.43
2023-05-08T00:35:50.848Z,11.97
2023-05-08T00:37:22.901Z,10.80
2023-05-08T00:38:57.317Z,12.20
2023-05-08T00:40:29.486Z,12.13
2023-05-08T00:42:02.586Z,10.97
2023-05-08T00:43:37.514Z,12.50
2023-05-08T00:45:11.400Z,10.63
2023-05-08T00:46:45.650Z,11.93
2023-05-08T00:48:19.205Z,11.53
2023-05-08T00:49:52.372Z,13.73
2023-05-08T00:51:25.577Z,12.57
2023-05-08T00:52:59.819Z,11.63
2023-05-08T00:54:33.301Z,11.57
2023-05-08T00:56:07.793Z,12.03
2023-05-08T00:57:40.908Z,14.03
2023-05-08T00:59:17.496Z,13.97
2023-05-08T01:00:53.535Z,13.27
2023-05-08T01:02:27.057Z,12.47
2023-05-08T01:03:59.284Z,11.90
2023-05-08T01:05:32.890Z,12.50
2023-05-08T01:07:06.075Z,12.07
2023-05-08T01:08:38.429Z,11.97
2023-05-08T01:10:13.209Z,14.50
2023-05-08T01:11:51.917Z,12.17
2023-05-08T01:13:32.846Z,13.43
2023-05-08T01:15:10.774Z,14.17
2023-05-08T01:16:47.550Z,12.40
2023-05-08T01:18:24.236Z,11.97
2023-05-08T01:20:07.877Z,11.10
2023-05-08T01:21:51.571Z,11.77
2023-05-08T01:24:08.629Z,14.60
2023-05-08T01:26:22.083Z,13.30
2023-05-08T01:28:20.979Z,13.23
2023-05-08T01:30:41.529Z,12.70
2023-05-08T01:32:20.463Z,13.00
2023-05-08T01:34:02.119Z,14.57
2023-05-08T01:35:41.956Z,13.70
2023-05-08T01:37:21.232Z,17.13
2023-05-08T01:39:02.245Z,14.70
2023-05-08T01:40:41.564Z,15.07
2023-05-08T01:42:23.617Z,13.77
2023-05-08T01:44:07.594Z,14.77
2023-05-08T01:45:45.915Z,13.50
2023-05-08T01:47:25.095Z,14.30
2023-05-08T01:49:06.211Z,13.43
2023-05-08T01:50:45.900Z,13.33
2023-05-08T01:52:26.415Z,13.10
2023-05-08T01:55:41.237Z,15.40
2023-05-08T01:57:15.652Z,14.60
2023-05-08T01:58:50.424Z,13.13
2023-05-08T02:00:25.037Z,14.93
2023-05-08T02:02:01.889Z,15.20
2023-05-08T02:03:38.410Z,13.90
2023-05-08T02:05:13.661Z,15.87
2023-05-08T02:06:47.316Z,16.97
2023-05-08T02:08:21.353Z,14.87
2023-05-08T02:09:56.958Z,16.70
2023-05-08T02:11:31.848Z,16.30
2023-05-08T02:13:06.558Z,14.07
2023-05-08T02:14:41.491Z,18.90
2023-05-08T02:16:15.589Z,16.03
2023-05-08T02:17:51.702Z,16.10
2023-05-08T02:19:28.267Z,16.00
2023-05-08T02:21:02.778Z,16.33
2023-05-08T02:22:37.260Z,15.90
2023-05-08T02:24:10.919Z,15.43
2023-05-08T02:25:45.795Z,15.70
2023-05-08T02:27:19.501Z,16.33
2023-05-08T02:28:54.142Z,15.60
2023-05-08T02:30:28.704Z,15.10
2023-05-08T02:32:03.062Z,16.07
2023-05-08T02:33:37.046Z,15.43
2023-05-08T02:35:14.093Z,15.03
2023-05-08T02:36:48.261Z,17.63
2023-05-08T02:38:24.197Z,16.77
2023-05-08T02:39:59.019Z,16.47
2023-05-08T02:41:34.777Z,16.37
2023-05-08T02:43:08.452Z,16.40
2023-05-08T02:44:41.622Z,17.13
2023-05-08T02:46:17.130Z,15.63
2023-05-08T02:48:01.282Z,16.37
2023-05-08T02:49:43.924Z,17.70
2023-05-08T02:51:23.270Z,15.47
2023-05-08T02:53:07.696Z,17.37
2023-05-08T02:54:44.319Z,16.20
2023-05-08T02:56:27.138Z,17.37
2023-05-08T02:58:07.851Z,17.67
2023-05-08T02:59:46.460Z,17.47
2023-05-08T03:01:25.250Z,15.47
2023-05-08T03:03:02.455Z,16.87
2023-05-08T03:04:38.442Z,16.73
2023-05-08T03:06:15.923Z,14.90
2023-05-08T03:07:55.481Z,15.37
2023-05-08T03:09:39.899Z,15.77
2023-05-08T03:11:17.052Z,19.27
2023-05-08T03:12:54.323Z,16.93
2023-05-08T03:14:29.881Z,16.70
2023-05-08T03:16:05.516Z,18.00
2023-05-08T03:17:40.617Z,17.00
2023-05-08T03:19:21.836Z,15.97
2023-05-08T03:20:58.130Z,17.97
2023-05-08T03:22:33.637Z,14.63
2023-05-08T03:24:09.752Z,14.77
2023-05-08T03:25:44.844Z,16.50
2023-05-08T03:27:20.480Z,15.23
2023-05-08T03:28:53.917Z,15.90
2023-05-08T03:30:32.278Z,15.13
2023-05-08T03:32:12.891Z,15.77
2023-05-08T03:33:45.954Z,16.00
2023-05-08T03:35:19.600Z,17.17
2023-05-08T03:36:53.208Z,16.87
2023-05-08T03:38:26.806Z,15.83
2023-05-08T03:40:00.426Z,17.50
2023-05-08T03:41:33.566Z,16.63
2023-05-08T03:43:08.471Z,16.50
2023-05-08T03:44:40.866Z,17.83
2023-05-08T03:46:14.850Z,16.20
2023-05-08T03:47:48.153Z,16.73
2023-05-08T03:49:25.095Z,15.87
2023-05-08T03:50:59.947Z,17.83
2023-05-08T03:52:33.908Z,17.00
2023-05-08T03:54:07.106Z,18.27
2023-05-08T03:55:42.002Z,16.93
2023-05-08T03:57:16.062Z,18.20
2023-05-08T03:58:52.629Z,18.50
2023-05-08T04:00:37.788Z,18.83
2023-05-08T04:02:19.588Z,18.43
2023-05-08T04:03:57.501Z,20.33
2023-05-08T04:05:37.597Z,17.33
2023-05-08T04:07:15.777Z,18.90
2023-05-08T04:09:06.787Z,18.60
2023-05-08T04:10:46.612Z,17.67
2023-05-08T04:12:22.885Z,16.50
2023-05-08T04:14:03.191Z,14.33
2023-05-08T04:15:39.454Z,14.73
2023-05-08T04:17:16.754Z,13.77
2023-05-08T04:18:55.458Z,14.07
2023-05-08T04:20:29.456Z,14.57
2023-05-08T04:22:07.702Z,12.77
2023-05-08T04:23:45.315Z,15.00
2023-05-08T04:25:20.210Z,14.43
2023-05-08T04:26:56.617Z,14.03
2023-05-08T04:28:31.396Z,12.97
2023-05-08T04:30:06.204Z,13.37
2023-05-08T04:31:42.042Z,13.80
2023-05-08T04:33:18.244Z,12.23
2023-05-08T04:34:51.755Z,11.87
2023-05-08T04:36:26.040Z,12.00
2023-05-08T04:37:59.330Z,12.80
2023-05-08T04:39:32.464Z,11.97
2023-05-08T04:41:05.828Z,13.43
2023-05-08T04:42:42.978Z,14.43
2023-05-08T04:44:16.451Z,13.60
2023-05-08T04:45:49.614Z,21.00
2023-05-08T04:47:24.157Z,12.33
2023-05-08T04:48:57.663Z,11.83
2023-05-08T04:50:30.894Z,12.97
2023-05-08T04:52:03.198Z,11.83
2023-05-08T04:53:36.689Z,12.03
2023-05-08T04:55:11.269Z,11.17
2023-05-08T04:56:45.600Z,14.07
2023-05-08T04:58:20.432Z,11.93
2023-05-08T04:59:53.598Z,10.80
2023-05-08T05:01:26.904Z,13.00
2023-05-08T05:02:59.161Z,11.77
2023-05-08T05:04:33.067Z,12.30
2023-05-08T05:06:06.851Z,12.70
2023-05-08T05:07:39.986Z,11.80
2023-05-08T05:09:12.198Z,10.63
2023-05-08T05:10:45.647Z,11.80
2023-05-08T05:12:18.759Z,11.47
2023-05-08T05:13:53.309Z,11.13
2023-05-08T05:15:26.363Z,13.13
2023-05-08T05:16:59.753Z,9.53
2023-05-08T05:18:32.977Z,10.43
2023-05-08T05:20:08.658Z,9.83
2023-05-08T05:21:41.787Z,10.00
2023-05-08T05:23:14.997Z,10.40
2023-05-08T05:24:48.078Z,10.50
2023-05-08T05:26:21.723Z,9.53
2023-05-08T05:27:54.930Z,10.77
2023-05-08T05:29:30.284Z,10.07
2023-05-08T05:31:03.630Z,11.23
2023-05-08T05:32:37.093Z,8.83
2023-05-08T05:34:10.351Z,8.63
2023-05-08T05:35:42.499Z,9.23
2023-05-08T05:37:15.641Z,9.23
2023-05-08T05:38:48.771Z,8.93
2023-05-08T05:40:22.062Z,8.73
2023-05-08T05:41:55.163Z,7.13
2023-05-08T05:43:28.520Z,7.93
2023-05-08T05:45:03.671Z,6.33
2023-05-08T05:46:37.930Z,7.00
2023-05-08T05:48:11.394Z,6.23
2023-05-08T05:49:46.881Z,5.90
2023-05-08T05:51:20.128Z,6.13
2023-05-08T05:52:53.253Z,6.17
2023-05-08T05:54:26.734Z,5.80
2023-05-08T05:55:59.872Z,5.03
2023-05-08T05:57:32.998Z,4.97
2023-05-08T05:59:06.383Z,5.77
2023-05-08T06:00:40.924Z,5.70
2023-05-08T06:02:18.638Z,5.43
2023-05-08T06:03:52.321Z,6.37
2023-05-08T06:05:24.717Z,4.90
2023-05-08T06:06:58.062Z,5.20
2023-05-08T06:08:31.328Z,4.83
2023-05-08T06:10:04.961Z,5.00
2023-05-08T06:11:38.467Z,5.13
2023-05-08T06:13:11.671Z,5.27
2023-05-08T06:14:44.832Z,4.50
2023-05-08T06:16:20.839Z,5.43
2023-05-08T06:17:57.174Z,4.63
2023-05-08T06:19:30.505Z,4.70
2023-05-08T06:21:03.683Z,5.00
2023-05-08T06:22:37.708Z,4.90
2023-05-08T06:24:11.757Z,4.53
2023-05-08T06:25:44.882Z,4.40
2023-05-08T06:27:17.963Z,4.80
2023-05-08T06:28:51.042Z,4.63
2023-05-08T06:30:24.533Z,5.00
2023-05-08T06:31:59.281Z,3.97
2023-05-08T06:33:32.453Z,5.83
2023-05-08T06:35:06.061Z,4.10
2023-05-08T06:36:39.293Z,4.10
2023-05-08T06:38:12.333Z,4.43
2023-05-08T06:39:45.467Z,4.97
2023-05-08T06:41:18.561Z,4.40
2023-05-08T06:42:51.846Z,4.07
2023-05-08T06:44:24.984Z,4.30
2023-05-08T06:45:58.201Z,3.90
2023-05-08T06:47:32.794Z,4.10
2023-05-08T06:49:06.108Z,4.30
2023-05-08T06:50:39.634Z,3.80
2023-05-08T06:52:12.770Z,3.57
2023-05-08T06:53:45.836Z,3.53
2023-05-08T06:55:19.210Z,4.87
2023-05-08T06:56:53.866Z,3.40
2023-05-08T06:58:27.434Z,3.90
2023-05-08T07:00:00.525Z,3.40
2023-05-08T07:01:33.946Z,5.80
2023-05-08T07:03:08.456Z,3.40
2023-05-08T07:04:41.734Z,4.40
2023-05-08T07:06:14.825Z,4.37
2023-05-08T07:07:48.234Z,3.53
2023-05-08T07:09:21.599Z,3.60
2023-05-08T07:10:55.012Z,3.67
2023-05-08T07:12:28.390Z,2.90
2023-05-08T07:14:01.862Z,3.50
2023-05-08T07:15:35.277Z,3.27
2023-05-08T07:17:09.263Z,3.40
2023-05-08T07:18:44.161Z,3.00
2023-05-08T07:20:18.159Z,3.00
2023-05-08T07:21:51.401Z,2.97
2023-05-08T07:23:24.653Z,2.40
2023-05-08T07:24:57.864Z,2.83
2023-05-08T07:26:31.246Z,2.63
2023-05-08T07:28:04.397Z,3.13
2023-05-08T07:29:37.589Z,3.10
2023-05-08T07:31:10.701Z,2.80
2023-05-08T07:32:43.825Z,3.00
2023-05-08T07:34:18.300Z,2.67
2023-05-08T07:35:51.482Z,2.50
2023-05-08T07:37:24.553Z,2.90
2023-05-08T07:38:57.676Z,2.83
2023-05-08T07:40:30.822Z,2.50
2023-05-08T07:42:04.069Z,2.37
2023-05-08T07:43:37.148Z,2.27
2023-05-08T07:45:12.170Z,2.83
2023-05-08T07:46:45.578Z,4.33
2023-05-08T07:48:18.676Z,2.57
2023-05-08T07:49:54.256Z,2.67
2023-05-08T07:51:27.708Z,2.70
2023-05-08T07:53:00.837Z,2.63
2023-05-08T07:54:33.896Z,4.10
2023-05-08T07:56:07.523Z,2.80
2023-05-08T07:57:41.785Z,2.10
2023-05-08T07:59:14.844Z,2.83
2023-05-08T08:00:47.916Z,2.37
2023-05-08T08:02:21.026Z,4.17
2023-05-08T08:03:54.871Z,2.40
2023-05-08T08:05:29.585Z,3.73
2023-05-08T08:07:02.750Z,1.97
2023-05-08T08:08:35.793Z,2.63
2023-05-08T08:10:09.941Z,2.27
2023-05-08T08:11:42.998Z,2.00
2023-05-08T08:13:16.104Z,2.50
2023-05-08T08:14:49.310Z,3.30
2023-05-08T08:16:22.426Z,2.40
2023-05-08T08:17:55.895Z,2.70
2023-05-08T08:19:29.055Z,2.43
2023-05-08T08:21:06.561Z,2.47
2023-05-08T08:22:40.270Z,2.47
2023-05-08T08:24:13.581Z,2.43
2023-05-08T08:25:46.682Z,2.53
2023-05-08T08:27:19.918Z,2.30
2023-05-08T08:28:53.260Z,1.97
2023-05-08T08:30:26.318Z,2.10
2023-05-08T08:31:59.433Z,2.37
2023-05-08T08:33:32.546Z,2.23
2023-05-08T08:35:06.339Z,2.90
2023-05-08T08:36:41.192Z,2.07
2023-05-08T08:38:14.247Z,1.93
2023-05-08T08:39:48.347Z,1.67
2023-05-08T08:41:21.792Z,2.60
2023-05-08T08:42:56.006Z,2.83
2023-05-08T08:44:29.193Z,2.00
2023-05-08T08:46:04.629Z,3.13
2023-05-08T08:47:38.566Z,1.80
2023-05-08T08:49:18.870Z,2.03
2023-05-08T08:50:59.864Z,2.13
2023-05-08T08:52:42.122Z,1.90
2023-05-08T08:54:18.436Z,1.93
2023-05-08T08:55:55.514Z,1.70
2023-05-08T08:57:29.838Z,5.60
2023-05-08T08:59:03.953Z,2.07
2023-05-08T09:00:39.019Z,1.70
2023-05-08T09:02:17.698Z,2.33
2023-05-08T09:03:51.377Z,1.73
2023-05-08T09:05:26.446Z,1.60
2023-05-08T09:07:00.027Z,1.50
2023-05-08T09:08:35.764Z,1.97
2023-05-08T09:10:15.486Z,1.90
2023-05-08T09:11:49.351Z,1.83
2023-05-08T09:13:22.470Z,2.40
2023-05-08T09:14:55.827Z,2.87
2023-05-08T09:16:29.650Z,1.60
2023-05-08T09:18:03.487Z,1.83
2023-05-08T09:19:37.478Z,2.17
2023-05-08T09:21:10.925Z,1.87
2023-05-08T09:22:44.604Z,2.10
2023-05-08T09:24:19.088Z,1.77
2023-05-08T09:25:52.151Z,1.77
2023-05-08T09:27:27.040Z,1.67
2023-05-08T09:29:13.884Z,1.80
2023-05-08T09:30:52.211Z,1.63
2023-05-08T09:32:25.750Z,2.30
2023-05-08T09:33:58.928Z,1.40
2023-05-08T09:35:37.738Z,1.63
2023-05-08T09:37:14.502Z,1.63
2023-05-08T09:38:47.556Z,1.90
2023-05-08T09:40:23.626Z,1.43
2023-05-08T09:42:00.226Z,3.63
2023-05-08T09:43:33.345Z,2.17
2023-05-08T09:45:07.744Z,2.07
2023-05-08T09:46:40.858Z,2.70
2023-05-08T09:48:13.961Z,2.13
2023-05-08T09:49:58.625Z,1.60
2023-05-08T09:51:32.774Z,2.70
2023-05-08T09:53:05.944Z,2.60
2023-05-08T09:54:39.036Z,1.77
2023-05-08T09:56:13.859Z,2.10
2023-05-08T09:57:54.776Z,1.47
2023-05-08T09:59:30.416Z,2.60
2023-05-08T10:01:04.456Z,2.53
2023-05-08T10:02:38.635Z,2.47
2023-05-08T10:04:11.968Z,1.90
2023-05-08T10:05:47.317Z,3.33
2023-05-08T10:07:29.484Z,1.90
2023-05-08T10:09:12.914Z,1.47
2023-05-08T10:10:46.133Z,3.57
2023-05-08T10:12:22.735Z,3.27
2023-05-08T10:13:56.242Z,1.67
2023-05-08T10:15:31.869Z,1.70
2023-05-08T10:17:11.399Z,1.47
2023-05-08T10:18:49.403Z,1.97
2023-05-08T10:20:23.846Z,1.70
2023-05-08T10:21:59.136Z,1.67
2023-05-08T10:23:35.020Z,2.10
2023-05-08T10:25:17.048Z,2.90
2023-05-08T10:27:07.067Z,2.50
2023-05-08T10:28:45.906Z,1.57
2023-05-08T10:30:20.783Z,2.87
2023-05-08T10:31:57.726Z,4.90
2023-05-08T10:33:32.509Z,1.53
2023-05-08T10:35:09.464Z,1.60
2023-05-08T10:36:42.618Z,2.57
2023-05-08T10:38:17.728Z,2.50
2023-05-08T10:39:51.316Z,2.20
2023-05-08T10:41:24.935Z,1.40
2023-05-08T10:42:59.667Z,2.17
2023-05-08T10:44:34.509Z,1.90
2023-05-08T10:46:17.048Z,5.03
2023-05-08T10:48:00.630Z,1.70
2023-05-08T10:49:41.254Z,1.37
2023-05-08T10:51:20.234Z,1.77
2023-05-08T10:52:58.861Z,2.10
2023-05-08T10:54:43.358Z,2.53
2023-05-08T10:56:16.496Z,2.33
2023-05-08T10:58:07.404Z,3.63
2023-05-08T10:59:46.679Z,2.20
2023-05-08T11:01:20.479Z,1.90
2023-05-08T11:02:53.720Z,1.57
2023-05-08T11:04:30.045Z,1.70
2023-05-08T11:06:03.516Z,2.53
2023-05-08T11:07:54.642Z,1.87
2023-05-08T11:09:30.279Z,2.80
2023-05-08T11:11:09.061Z,2.13
2023-05-08T11:12:51.332Z,1.40
2023-05-08T11:14:25.190Z,2.33
2023-05-08T11:15:59.686Z,1.90
2023-05-08T11:17:33.270Z,1.80
2023-05-08T11:19:18.137Z,1.57
2023-05-08T11:20:58.083Z,1.23
2023-05-08T11:22:32.870Z,1.27
2023-05-08T11:24:11.635Z,2.90
2023-05-08T11:25:46.026Z,1.43
2023-05-08T11:27:19.259Z,3.20
2023-05-08T11:28:58.782Z,2.63
2023-05-08T11:30:39.520Z,1.57
2023-05-08T11:32:14.204Z,1.60
2023-05-08T11:33:47.370Z,1.37
2023-05-08T11:35:41.412Z,2.37
2023-05-08T11:37:19.726Z,1.63
2023-05-08T11:39:08.699Z,1.60
2023-05-08T11:40:56.456Z,1.77
2023-05-08T11:42:36.193Z,1.73
2023-05-08T11:44:20.413Z,2.27
2023-05-08T11:45:52.957Z,2.03
2023-05-08T11:47:36.788Z,2.20
2023-05-08T11:49:15.519Z,1.33
2023-05-08T11:50:48.936Z,2.20
2023-05-08T11:52:21.997Z,1.47
2023-05-08T11:53:55.158Z,1.80
2023-05-08T11:55:28.295Z,1.97
2023-05-08T11:57:01.819Z,1.80
2023-05-08T11:58:34.028Z,4.00
2023-05-08T12:00:07.964Z,1.70
2023-05-08T12:01:48.520Z,1.13
2023-05-08T12:03:31.231Z,2.10
2023-05-08T12:05:04.733Z,1.60
2023-05-08T12:06:40.899Z,2.50
2023-05-08T12:08:15.286Z,1.33
2023-05-08T12:09:48.612Z,4.63
2023-05-08T12:11:24.721Z,1.43
2023-05-08T12:12:57.891Z,1.80
2023-05-08T12:14:31.185Z,2.10
2023-05-08T12:16:04.298Z,1.97
2023-05-08T12:17:38.035Z,1.90
2023-05-08T12:19:14.224Z,1.17
2023-05-08T12:20:47.908Z,1.83
2023-05-08T12:22:21.436Z,1.80
2023-05-08T12:23:56.015Z,1.13
2023-05-08T12:25:29.212Z,1.83
2023-05-08T12:27:02.580Z,1.30
2023-05-08T12:28:35.675Z,1.73
2023-05-08T12:30:10.221Z,2.10
2023-05-08T12:31:43.480Z,2.37
2023-05-08T12:33:17.140Z,1.70
2023-05-08T12:34:52.741Z,1.87
2023-05-08T12:36:27.184Z,2.83
2023-05-08T12:38:03.362Z,1.37
2023-05-08T12:39:38.268Z,1.40
2023-05-08T12:41:11.344Z,1.20
2023-05-08T12:42:45.545Z,2.40
2023-05-08T12:44:20.398Z,1.30
2023-05-08T12:45:53.651Z,1.80
2023-05-08T12:47:26.984Z,1.37
2023-05-08T12:49:04.969Z,1.50
2023-05-08T12:50:40.617Z,2.20
2023-05-08T12:52:14.941Z,3.83
2023-05-08T12:53:48.175Z,1.13
2023-05-08T12:55:26.370Z,1.50
2023-05-08T12:56:59.574Z,2.10
2023-05-08T12:58:34.005Z,1.83
2023-05-08T13:00:08.586Z,3.53
2023-05-08T13:01:41.659Z,2.80
2023-05-08T13:03:22.272Z,2.13
2023-05-08T13:04:56.706Z,2.13
2023-05-08T13:06:31.843Z,2.17
2023-05-08T13:08:06.703Z,2.63
2023-05-08T13:09:40.101Z,1.67
2023-05-08T13:11:13.240Z,2.27
2023-05-08T13:12:46.663Z,2.07
2023-05-08T13:14:20.010Z,1.50
2023-05-08T13:15:54.802Z,1.40
2023-05-08T13:17:27.952Z,1.33
2023-05-08T13:19:01.145Z,2.17
2023-05-08T13:20:34.699Z,1.70
2023-05-08T13:22:10.560Z,1.27
2023-05-08T13:23:44.064Z,2.37
2023-05-08T13:25:17.264Z,1.10
2023-05-08T13:26:50.420Z,2.70
2023-05-08T13:28:23.470Z,1.83
2023-05-08T13:29:56.627Z,1.37
2023-05-08T13:31:29.788Z,2.00
2023-05-08T13:33:03.156Z,1.27
2023-05-08T13:34:39.457Z,1.70
2023-05-08T13:36:17.276Z,1.63
2023-05-08T13:37:51.932Z,1.40
2023-05-08T13:39:24.978Z,2.80
2023-05-08T13:40:58.237Z,1.37
2023-05-08T13:42:31.318Z,2.60
2023-05-08T13:44:04.420Z,1.20
2023-05-08T13:45:37.973Z,1.73
2023-05-08T13:47:11.419Z,1.67
2023-05-08T13:48:44.460Z,1.93
2023-05-08T13:50:19.449Z,1.73
2023-05-08T13:51:56.978Z,2.63
2023-05-08T13:53:32.019Z,1.10
2023-05-08T13:55:06.575Z,1.97
2023-05-08T13:56:39.932Z,1.90
2023-05-08T13:58:13.240Z,4.10
2023-05-08T13:59:46.369Z,3.20
2023-05-08T14:01:26.304Z,1.63
2023-05-08T14:03:00.188Z,1.90
2023-05-08T14:04:33.382Z,1.53
2023-05-08T14:06:07.472Z,1.27
2023-05-08T14:07:40.636Z,2.30
2023-05-08T14:09:15.191Z,1.40
2023-05-08T14:10:48.309Z,1.43
2023-05-08T14:12:21.477Z,1.30
2023-05-08T14:13:54.702Z,1.50
2023-05-08T14:15:36.400Z,2.37
2023-05-08T14:17:10.950Z,1.93
2023-05-08T14:18:44.431Z,1.57
2023-05-08T14:20:17.567Z,2.20
2023-05-08T14:21:51.218Z,1.63
2023-05-08T14:23:24.335Z,1.47
2023-05-08T14:24:58.743Z,1.20
2023-05-08T14:26:31.923Z,1.77
2023-05-08T14:28:05.594Z,1.30
2023-05-08T14:29:38.678Z,1.87
2023-05-08T14:31:12.044Z,2.37
2023-05-08T14:32:45.228Z,1.20
2023-05-08T14:34:18.357Z,4.33
2023-05-08T14:35:51.435Z,1.87
2023-05-08T14:37:24.492Z,3.70
2023-05-08T14:38:57.653Z,1.33
2023-05-08T14:40:32.155Z,2.33
2023-05-08T14:42:22.130Z,7.37
2023-05-08T14:43:56.342Z,2.90
2023-05-08T14:45:29.529Z,2.57
2023-05-08T14:47:02.712Z,3.83
2023-05-08T14:48:35.872Z,2.80
2023-05-08T14:50:09.653Z,2.23
2023-05-08T14:51:42.767Z,3.27
2023-05-08T14:53:16.011Z,2.67
2023-05-08T14:54:52.987Z,2.50
2023-05-08T14:56:30.214Z,3.23
2023-05-08T14:58:05.314Z,3.63
2023-05-08T14:59:43.540Z,4.63
2023-05-08T15:01:22.494Z,3.03
2023-05-08T15:02:55.654Z,2.63
2023-05-08T15:04:28.834Z,2.73
2023-05-08T15:06:02.137Z,3.00
2023-05-08T15:07:35.763Z,4.00
2023-05-08T15:09:10.229Z,3.40
2023-05-08T15:10:43.457Z,3.10
2023-05-08T15:12:18.039Z,4.37
2023-05-08T15:13:51.111Z,4.07
2023-05-08T15:15:24.408Z,5.70
2023-05-08T15:16:57.537Z,4.70
2023-05-08T15:18:30.643Z,3.53
2023-05-08T15:20:03.815Z,4.57
2023-05-08T15:21:36.927Z,4.13
2023-05-08T15:23:10.032Z,2.70
2023-05-08T15:24:43.144Z,4.80
2023-05-08T15:26:16.223Z,5.03
2023-05-08T15:27:52.788Z,4.60
2023-05-08T15:29:26.743Z,3.30
2023-05-08T15:30:59.829Z,3.77
2023-05-08T15:32:32.953Z,4.20
2023-05-08T15:34:06.197Z,2.77
2023-05-08T15:35:39.425Z,2.50
2023-05-08T15:37:12.484Z,4.57
2023-05-08T15:38:45.570Z,3.13
2023-05-08T15:40:18.731Z,4.30
2023-05-08T15:41:52.017Z,4.83
2023-05-08T15:43:26.824Z,3.03
2023-05-08T15:45:00.160Z,3.90
2023-05-08T15:46:33.264Z,3.93
2023-05-08T15:48:06.691Z,4.10
2023-05-08T15:49:39.892Z,3.97
2023-05-08T15:51:12.987Z,2.43
2023-05-08T15:52:46.051Z,2.80
2023-05-08T15:54:19.187Z,2.30
2023-05-08T15:55:52.301Z,3.70
2023-05-08T15:57:26.980Z,2.80
2023-05-08T15:59:01.433Z,3.23
2023-05-08T16:00:44.076Z,3.73
2023-05-08T16:02:18.527Z,3.03
2023-05-08T16:03:51.744Z,4.33
2023-05-08T16:05:24.835Z,2.20
2023-05-08T16:06:59.390Z,3.73
2023-05-08T16:08:32.434Z,2.60
2023-05-08T16:10:07.465Z,4.57
2023-05-08T16:11:40.842Z,3.00
2023-05-08T16:13:13.950Z,7.87
2023-05-08T16:14:48.441Z,3.43
2023-05-08T16:16:21.587Z,4.80
2023-05-08T16:17:54.840Z,4.13
2023-05-08T16:19:27.927Z,3.30
2023-05-08T16:21:01.105Z,5.43
2023-05-08T16:22:34.163Z,3.70
2023-05-08T16:24:07.782Z,3.60
2023-05-08T16:25:40.842Z,5.23
2023-05-08T16:27:14.063Z,2.77
2023-05-08T16:28:47.114Z,3.10
2023-05-08T16:30:21.809Z,3.30
2023-05-08T16:31:55.007Z,6.03
2023-05-08T16:33:28.120Z,4.20
2023-05-08T16:35:01.423Z,20.13
2023-05-08T16:36:34.513Z,6.90
2023-05-08T16:38:07.647Z,7.50
2023-05-08T16:39:40.829Z,3.17
2023-05-08T16:41:14.039Z,3.87
2023-05-08T16:42:47.200Z,5.50
2023-05-08T16:44:20.296Z,3.87
2023-05-08T16:45:55.492Z,4.77
2023-05-08T16:47:29.981Z,2.97
2023-05-08T16:49:03.069Z,4.10
2023-05-08T16:50:36.236Z,3.63
2023-05-08T16:52:09.288Z,5.13
2023-05-08T16:53:42.403Z,4.27
2023-05-08T16:55:15.923Z,4.40
2023-05-08T16:56:49.443Z,3.77
2023-05-08T16:58:22.961Z,4.17
2023-05-08T16:59:57.187Z,5.43
2023-05-08T17:01:33.111Z,3.37
2023-05-08T17:03:06.654Z,3.63
2023-05-08T17:04:39.794Z,3.87
2023-05-08T17:06:13.036Z,4.60
2023-05-08T17:07:46.889Z,3.50
2023-05-08T17:09:20.489Z,4.00
2023-05-08T17:10:54.735Z,4.17
2023-05-08T17:12:27.834Z,3.83
2023-05-08T17:14:00.986Z,4.27
2023-05-08T17:15:34.298Z,4.40
2023-05-08T17:17:09.126Z,4.23
2023-05-08T17:18:42.193Z,3.97
2023-05-08T17:20:15.862Z,5.87
2023-05-08T17:21:49.266Z,4.87
2023-05-08T17:23:22.352Z,4.57
2023-05-08T17:24:55.495Z,5.53
2023-05-08T17:26:28.715Z,6.00
2023-05-08T17:28:02.045Z,4.70
2023-05-08T17:29:35.612Z,6.53
2023-05-08T17:31:09.569Z,7.67
2023-05-08T17:32:44.183Z,3.80
2023-05-08T17:34:17.437Z,5.90
2023-05-08T17:35:50.624Z,5.87
2023-05-08T17:37:24.843Z,5.67
2023-05-08T17:38:57.954Z,6.90
2023-05-08T17:40:31.738Z,6.80
2023-05-08T17:42:05.006Z,4.83
2023-05-08T17:43:38.619Z,5.83
2023-05-08T17:45:12.434Z,4.20
2023-05-08T17:46:45.644Z,5.10
2023-05-08T17:48:20.193Z,5.93
2023-05-08T17:49:53.394Z,4.73
2023-05-08T17:51:26.529Z,4.80
2023-05-08T17:52:59.725Z,5.67
2023-05-08T17:54:32.878Z,4.47
2023-05-08T17:56:06.312Z,7.53
2023-05-08T17:57:39.379Z,5.07
2023-05-08T17:59:12.536Z,7.50
2023-05-08T18:00:45.665Z,5.93
2023-05-08T18:02:19.251Z,4.97
2023-05-08T18:03:54.145Z,6.70
2023-05-08T18:05:27.233Z,5.33
2023-05-08T18:07:01.503Z,5.47
2023-05-08T18:08:35.156Z,5.40
2023-05-08T18:10:09.120Z,7.27
2023-05-08T18:11:42.452Z,5.00
2023-05-08T18:13:15.575Z,5.27
2023-05-08T18:14:48.834Z,5.33
2023-05-08T18:16:23.182Z,6.33
2023-05-08T18:17:56.472Z,6.70
2023-05-08T18:19:30.936Z,5.50
2023-05-08T18:21:04.051Z,6.10
2023-05-08T18:22:37.436Z,7.63
2023-05-08T18:24:10.516Z,7.50
2023-05-08T18:25:43.818Z,6.00
2023-05-08T18:27:17.080Z,5.27
2023-05-08T18:28:50.221Z,5.83
2023-05-08T18:30:23.388Z,8.57
2023-05-08T18:31:56.517Z,4.87
2023-05-08T18:33:30.412Z,10.83
2023-05-08T18:35:05.069Z,6.60
2023-05-08T18:36:38.184Z,7.93
2023-05-08T18:38:11.411Z,5.30
2023-05-08T18:39:44.501Z,8.13
2023-05-08T18:41:17.656Z,7.13
2023-05-08T18:42:50.709Z,6.07
2023-05-08T18:44:23.852Z,9.83
2023-05-08T18:45:57.734Z,7.73
2023-05-08T18:47:30.924Z,6.50
2023-05-08T18:49:04.260Z,4.93
2023-05-08T18:50:38.922Z,5.33
2023-05-08T18:52:12.130Z,7.57
2023-05-08T18:53:46.230Z,6.43
2023-05-08T18:55:20.515Z,8.67
2023-05-08T18:56:54.516Z,6.20
2023-05-08T18:58:27.558Z,8.67
2023-05-08T19:00:00.611Z,7.70
2023-05-08T19:01:33.760Z,8.83
2023-05-08T19:03:07.039Z,9.27
2023-05-08T19:04:41.103Z,8.93
2023-05-08T19:06:15.586Z,7.20
2023-05-08T19:07:48.722Z,8.90
2023-05-08T19:09:23.038Z,7.47
2023-05-08T19:10:56.284Z,8.00
2023-05-08T19:12:29.429Z,7.20
2023-05-08T19:14:02.520Z,6.83
2023-05-08T19:15:35.884Z,7.97
2023-05-08T19:17:09.084Z,7.07
2023-05-08T19:18:42.211Z,8.00
2023-05-08T19:20:15.796Z,8.63
2023-05-08T19:21:50.468Z,6.50
2023-05-08T19:23:23.584Z,6.60
2023-05-08T19:24:56.725Z,7.57
2023-05-08T19:26:29.775Z,6.77
2023-05-08T19:28:04.057Z,8.40
2023-05-08T19:29:37.140Z,7.77
2023-05-08T19:31:10.323Z,6.20
2023-05-08T19:32:43.756Z,7.17
2023-05-08T19:34:17.089Z,7.90
2023-05-08T19:35:50.228Z,8.00
2023-05-08T19:37:24.941Z,7.83
2023-05-08T19:38:58.045Z,8.67
2023-05-08T19:40:31.866Z,8.13
2023-05-08T19:42:06.949Z,9.33
2023-05-08T19:43:41.237Z,7.73
2023-05-08T19:45:16.224Z,10.13
2023-05-08T19:46:50.576Z,9.77
2023-05-08T19:48:25.050Z,6.63
2023-05-08T19:49:58.208Z,6.90
2023-05-08T19:51:31.913Z,6.43
2023-05-08T19:53:06.693Z,7.77
2023-05-08T19:54:39.771Z,7.40
2023-05-08T19:56:12.901Z,8.27
2023-05-08T19:57:46.197Z,9.07
2023-05-08T19:59:19.296Z,7.77
2023-05-08T20:00:52.472Z,5.97
2023-05-08T20:02:26.148Z,8.33
2023-05-08T20:04:00.918Z,9.23
2023-05-08T20:05:35.199Z,8.90
2023-05-08T20:07:11.016Z,8.67
2023-05-08T20:08:46.764Z,10.37
2023-05-08T20:10:21.677Z,9.37
2023-05-08T20:11:56.229Z,8.33
2023-05-08T20:13:30.149Z,9.37
2023-05-08T20:15:03.939Z,9.07
2023-05-08T20:16:37.620Z,8.60
2023-05-08T20:18:11.594Z,9.83
2023-05-08T20:19:45.647Z,9.00
2023-05-08T20:21:19.853Z,8.70
2023-05-08T20:22:54.473Z,8.37
2023-05-08T20:24:29.521Z,9.93
2023-05-08T20:26:05.182Z,8.83
2023-05-08T20:27:39.194Z,11.67
2023-05-08T20:29:13.616Z,11.90
2023-05-08T20:30:46.984Z,10.23
2023-05-08T20:32:21.251Z,9.23
2023-05-08T20:33:55.641Z,9.43
2023-05-08T20:35:29.958Z,9.57
2023-05-08T20:37:04.359Z,9.77
2023-05-08T20:38:38.892Z,10.30
2023-05-08T20:40:15.453Z,9.17
2023-05-08T20:41:50.111Z,9.10
2023-05-08T20:43:24.424Z,10.13
2023-05-08T20:44:58.783Z,10.27
2023-05-08T20:46:33.153Z,9.07
2023-05-08T20:48:08.071Z,8.00
2023-05-08T20:49:42.403Z,8.07
2023-05-08T20:51:16.683Z,8.27
2023-05-08T20:52:49.785Z,7.87
2023-05-08T20:54:22.892Z,9.17